createdAt,value
2023-01-12T01:34:33.002Z,8.00
2023-01-12T01:37:01.507Z,7.80
2023-01-12T01:39:30.026Z,7.80
2023-01-12T01:41:58.548Z,7.80
2023-01-12T01:44:38.730Z,7.80
2023-01-12T01:47:10.319Z,7.80
2023-01-12T01:49:53.624Z,7.80
2023-01-12T01:52:37.373Z,7.80
2023-01-12T01:55:11.365Z,7.80
2023-01-12T02:02:43.611Z,8.00
2023-01-12T02:05:14.273Z,8.00
2023-01-12T02:07:42.852Z,7.90
2023-01-12T02:10:11.516Z,7.90
2023-01-12T02:12:59.022Z,7.90
2023-01-12T02:15:48.251Z,7.90
2023-01-12T02:18:27.938Z,7.90
2023-01-12T02:21:20.005Z,8.00
2023-01-12T02:24:08.383Z,8.00
2023-01-12T02:26:51.706Z,8.00
2023-01-12T02:29:44.143Z,8.00
2023-01-12T02:32:18.297Z,8.00
2023-01-12T02:35:04.556Z,8.10
2023-01-12T02:37:42.139Z,8.10
2023-01-12T02:40:16.838Z,8.20
2023-01-12T02:43:03.359Z,8.10
2023-01-12T02:45:52.650Z,8.10
2023-01-12T02:48:32.702Z,8.00
2023-01-12T02:51:06.894Z,7.90
2023-01-12T02:53:47.188Z,7.90
2023-01-12T02:56:18.745Z,7.80
2023-01-12T02:58:50.573Z,7.80
2023-01-12T03:01:21.319Z,7.80
2023-01-12T03:03:50.722Z,7.80
2023-01-12T03:06:19.647Z,7.80
2023-01-12T03:08:49.855Z,7.80
2023-01-12T03:11:21.112Z,7.80
2023-01-12T03:13:57.870Z,7.90
2023-01-12T03:16:29.372Z,7.80
2023-01-12T03:19:18.555Z,7.80
2023-01-12T03:21:50.110Z,7.80
2023-01-12T03:26:51.396Z,7.90
2023-01-12T03:29:37.949Z,7.90
2023-01-12T03:32:07.398Z,7.90
2023-01-12T03:34:37.313Z,7.90
2023-01-12T03:45:30.186Z,8.00
2023-01-12T03:48:16.952Z,7.90
2023-01-12T03:50:51.099Z,7.90
2023-01-12T03:53:22.725Z,7.90
2023-01-12T03:55:56.994Z,7.90
2023-01-12T03:58:25.794Z,7.90
2023-01-12T04:00:54.437Z,7.90
2023-01-12T04:03:24.502Z,7.90
2023-01-12T04:05:53.066Z,7.90
2023-01-12T04:08:21.824Z,7.90
2023-01-12T04:10:50.289Z,7.90
2023-01-12T05:00:35.137Z,7.80
2023-01-12T05:03:03.768Z,7.80
2023-01-12T05:05:33.980Z,7.70
2023-01-12T05:08:21.676Z,7.80
2023-01-12T05:10:54.879Z,7.70
2023-01-12T05:13:26.455Z,7.70
2023-01-12T05:15:55.084Z,7.70
2023-01-12T05:18:23.754Z,7.70
2023-01-12T05:20:52.275Z,7.70
2023-01-12T05:38:13.264Z,7.80
2023-01-12T05:40:42.262Z,7.60
2023-01-12T05:43:31.008Z,7.60
2023-01-12T05:46:04.709Z,7.60
2023-01-12T06:21:08.563Z,7.40
2023-01-12T06:23:37.216Z,7.40
2023-01-12T06:26:10.339Z,7.30
2023-01-12T06:28:39.817Z,7.30
2023-01-12T06:31:10.938Z,7.30
2023-01-12T06:33:39.737Z,7.30
2023-01-12T06:36:08.672Z,7.20
2023-01-12T06:38:43.136Z,7.20
2023-01-12T06:41:15.555Z,7.20
2023-01-12T06:43:44.059Z,7.20
2023-01-12T06:48:40.733Z,7.20
2023-01-12T06:51:09.179Z,7.20
2023-01-12T06:53:37.931Z,7.10
2023-01-12T06:56:06.883Z,7.10
2023-01-12T06:58:35.330Z,7.10
2023-01-12T07:06:01.550Z,7.50
2023-01-12T07:13:27.875Z,7.40
2023-01-12T07:33:19.061Z,7.80
2023-01-12T07:35:47.572Z,7.60
2023-01-12T07:38:16.079Z,7.60
2023-01-12T07:48:10.871Z,7.60
2023-01-12T07:50:39.396Z,7.60
2023-01-12T07:53:08.094Z,7.60
2023-01-12T07:55:38.237Z,7.60
2023-01-12T08:03:13.857Z,7.60
2023-01-12T08:05:42.468Z,7.60
2023-01-12T08:08:10.998Z,7.60
2023-01-12T08:10:40.879Z,7.70
2023-01-12T08:15:40.583Z,7.70
2023-01-12T08:25:43.992Z,7.80
2023-01-12T08:28:15.524Z,7.90
2023-01-12T08:30:47.027Z,7.90
2023-01-12T08:33:16.332Z,8.00
2023-01-12T08:35:46.627Z,8.00
2023-01-12T08:38:15.220Z,8.00
2023-01-12T08:41:01.401Z,8.00
2023-01-12T08:43:47.489Z,8.10
2023-01-12T08:46:16.288Z,8.10
2023-01-12T09:01:11.200Z,9.30
2023-01-12T09:08:44.874Z,8.90
2023-01-12T09:21:16.307Z,8.40
2023-01-12T09:23:46.215Z,8.70
2023-01-12T09:26:17.360Z,8.80
2023-01-12T09:28:46.517Z,8.90
2023-01-12T09:31:20.386Z,8.90
2023-01-12T09:33:49.692Z,8.90
2023-01-12T09:36:23.574Z,9.00
2023-01-12T09:38:52.535Z,9.00
2023-01-12T09:41:58.165Z,9.10
2023-01-12T09:44:47.667Z,9.10
2023-01-12T09:47:25.122Z,9.20
2023-01-12T09:50:08.049Z,9.20
2023-01-12T09:52:32.911Z,9.20
2023-01-12T09:57:50.356Z,9.20
2023-01-12T10:00:20.464Z,9.20
2023-01-12T10:02:54.867Z,9.30
2023-01-12T10:05:54.798Z,9.40
2023-01-12T10:08:50.388Z,9.40
2023-01-12T10:11:30.647Z,9.40
2023-01-12T10:14:13.505Z,9.40
2023-01-12T10:21:55.305Z,9.50
2023-01-12T10:24:26.142Z,9.50
2023-01-12T10:27:03.282Z,9.50
2023-01-12T10:29:33.023Z,9.50
2023-01-12T10:32:01.622Z,9.60
2023-01-12T10:34:32.935Z,9.60
2023-01-12T10:37:05.165Z,9.70
2023-01-12T10:39:39.483Z,9.70
2023-01-12T10:42:40.071Z,9.50
2023-01-12T10:45:23.174Z,9.50
2023-01-12T10:47:53.973Z,9.50
2023-01-12T10:50:32.671Z,9.60
2023-01-12T10:53:09.569Z,9.50
2023-01-12T10:58:22.703Z,9.50
2023-01-12T11:03:40.037Z,9.50
2023-01-12T11:06:27.002Z,9.50
2023-01-12T11:08:57.708Z,9.50
2023-01-12T11:11:33.757Z,9.60
2023-01-12T11:14:05.202Z,9.70
2023-01-12T11:16:42.027Z,9.70
2023-01-12T11:19:32.109Z,9.70
2023-01-12T11:22:12.496Z,9.80
2023-01-12T11:24:54.374Z,9.80
2023-01-12T11:27:34.408Z,9.90
2023-01-12T11:30:10.289Z,9.90
2023-01-12T11:32:44.939Z,10.00
2023-01-12T11:35:50.012Z,10.00
2023-01-12T11:38:21.908Z,10.00
2023-01-12T11:40:50.558Z,10.00
2023-01-12T11:43:48.969Z,9.90
2023-01-12T11:46:26.628Z,9.90
2023-01-12T11:49:25.235Z,9.90
2023-01-12T11:51:56.608Z,9.90
2023-01-12T11:54:27.556Z,10.00
2023-01-12T11:57:11.026Z,10.10
2023-01-12T12:00:12.684Z,10.00
2023-01-12T12:02:44.310Z,10.00
2023-01-12T12:05:28.052Z,10.00
2023-01-12T12:08:16.149Z,10.00
2023-01-12T12:10:56.699Z,10.00
2023-01-12T12:13:34.283Z,10.00
2023-01-12T12:16:08.653Z,10.00
2023-01-12T12:18:52.065Z,10.10
2023-01-12T12:21:35.451Z,10.10
2023-01-12T12:24:23.366Z,10.10
2023-01-12T12:26:57.575Z,10.10
2023-01-12T12:29:48.712Z,10.00
2023-01-12T12:32:38.132Z,10.00
2023-01-12T12:35:27.611Z,9.90
2023-01-12T12:38:05.607Z,9.80
2023-01-12T12:40:57.864Z,9.80
2023-01-12T12:43:49.467Z,9.70
2023-01-12T12:46:23.990Z,9.70
2023-01-12T12:49:07.455Z,9.70
2023-01-12T12:51:37.289Z,9.70
2023-01-12T12:54:08.133Z,9.80
2023-01-12T12:56:38.494Z,9.80
2023-01-12T12:59:07.180Z,9.80
2023-01-12T13:01:40.272Z,9.80
2023-01-12T13:04:10.804Z,9.80
2023-01-12T13:06:42.409Z,9.90
2023-01-12T13:09:14.982Z,9.90
2023-01-12T13:11:51.248Z,9.90
2023-01-12T13:14:34.433Z,10.00
2023-01-12T13:17:08.358Z,10.00
2023-01-12T13:19:42.578Z,10.00
2023-01-12T13:22:30.846Z,10.00
2023-01-12T13:25:02.057Z,10.00
2023-01-12T13:28:03.383Z,10.00
2023-01-12T13:30:35.335Z,10.00
2023-01-12T13:33:28.191Z,10.00
2023-01-12T13:36:10.196Z,10.00
2023-01-12T13:38:43.816Z,10.00
2023-01-12T13:41:20.127Z,10.10
2023-01-12T13:43:55.060Z,10.10
2023-01-12T13:46:26.737Z,10.20
2023-01-12T13:48:56.870Z,10.20
2023-01-12T13:51:40.265Z,10.30
2023-01-12T13:54:14.605Z,10.30
2023-01-12T13:56:44.196Z,10.30
2023-01-12T13:59:19.717Z,10.10
2023-01-12T14:01:49.454Z,10.10
2023-01-12T14:04:22.982Z,10.00
2023-01-12T14:07:11.019Z,10.10
2023-01-12T14:10:06.229Z,10.00
2023-01-12T14:12:40.535Z,10.00
2023-01-12T14:18:20.383Z,10.50
2023-01-12T14:20:51.055Z,10.10
2023-01-12T14:23:28.727Z,9.80
2023-01-12T14:33:36.295Z,10.40
2023-01-12T14:36:10.905Z,9.90
2023-01-12T14:38:43.516Z,9.80
2023-01-12T14:41:25.723Z,9.70
2023-01-12T14:44:13.098Z,9.70
2023-01-12T14:49:31.964Z,9.70
2023-01-12T14:52:06.154Z,9.60
2023-01-12T14:54:35.738Z,9.70
2023-01-12T14:57:07.598Z,9.70
2023-01-12T15:04:38.408Z,9.60
2023-01-12T15:07:09.177Z,9.60
2023-01-12T15:09:41.053Z,9.60
2023-01-12T15:12:28.959Z,9.60
2023-01-12T15:18:02.192Z,9.50
2023-01-12T15:20:37.185Z,9.50
2023-01-12T15:23:26.179Z,9.50
2023-01-12T15:25:54.977Z,9.50
2023-01-12T15:30:53.961Z,9.60
2023-01-12T15:33:23.721Z,9.50
2023-01-12T15:35:52.294Z,9.50
2023-01-12T15:38:20.752Z,9.50
2023-01-12T15:40:49.328Z,9.40
2023-01-12T15:43:20.106Z,9.40
2023-01-12T16:10:38.895Z,9.60
2023-01-12T18:09:48.220Z,9.30
2023-01-12T18:12:17.673Z,9.40
2023-01-12T18:14:46.181Z,9.40
2023-01-12T18:17:14.624Z,9.40
2023-01-12T18:19:43.157Z,9.40
2023-01-12T18:22:11.869Z,9.40
2023-01-12T18:24:40.497Z,9.30
2023-01-12T18:27:09.029Z,9.30
2023-01-12T18:29:37.690Z,9.30
2023-01-12T18:32:07.731Z,9.30
2023-01-12T18:44:51.250Z,9.50
2023-01-12T18:47:38.594Z,9.40
2023-01-12T18:50:18.421Z,9.40
2023-01-12T19:00:31.114Z,9.60
2023-01-12T19:02:59.829Z,9.50
2023-01-12T19:05:35.985Z,9.40
2023-01-12T19:08:07.669Z,9.40
2023-01-12T19:10:36.192Z,9.40
2023-01-12T19:13:22.399Z,9.40
2023-01-12T19:16:08.722Z,9.40
2023-01-12T19:18:38.683Z,9.30
2023-01-12T19:21:27.206Z,9.40
2023-01-12T19:24:15.197Z,9.30
2023-01-12T19:27:01.602Z,9.40
2023-01-12T19:31:58.303Z,9.40
2023-01-12T19:34:26.985Z,9.40
2023-01-12T20:09:23.405Z,9.30
2023-01-12T20:11:53.556Z,9.30
2023-01-12T20:14:22.551Z,9.30
2023-01-12T20:16:51.259Z,9.40
2023-01-12T20:19:20.496Z,9.30
2023-01-12T20:21:49.647Z,9.40
2023-01-12T20:24:18.622Z,9.40
2023-01-12T20:26:47.401Z,9.40
2023-01-12T20:29:16.303Z,9.40
2023-01-12T20:31:46.676Z,9.40
2023-01-12T20:34:15.164Z,9.40
2023-01-12T20:36:44.987Z,9.30
2023-01-12T20:39:16.273Z,9.30
2023-01-12T20:41:45.053Z,9.40
2023-01-12T20:44:15.791Z,9.40
2023-01-12T20:46:45.294Z,9.30
2023-01-12T20:49:13.832Z,9.30
